sensor_id;sensor_type;location;lat;lon;timestamp;pressure;altitude;pressure_sealevel;temperature;humidity
72285;BME280;60220;53.552;10.092;2022-10-26T00:02:09;101422.31;;;11.08;83.82
72285;BME280;60220;53.552;10.092;2022-10-26T00:04:37;101420.63;;;10.95;84.25
72285;BME280;60220;53.552;10.092;2022-10-26T00:07:04;101413.66;;;10.77;85.17
72285;BME280;60220;53.552;10.092;2022-10-26T00:09:32;101430.38;;;10.49;86.82
72285;BME280;60220;53.552;10.092;2022-10-26T00:11:59;101427.69;;;10.69;86.55
72285;BME280;60220;53.552;10.092;2022-10-26T00:14:25;101432.94;;;10.61;86.06
72285;BME280;60220;53.552;10.092;2022-10-26T00:16:55;101423.34;;;10.60;86.23
72285;BME280;60220;53.552;10.092;2022-10-26T00:19:22;101422.44;;;10.69;85.81
72285;BME280;60220;53.552;10.092;2022-10-26T00:21:48;101428.56;;;10.66;85.95
72285;BME280;60220;53.552;10.092;2022-10-26T00:24:15;101423.28;;;10.77;85.46
72285;BME280;60220;53.552;10.092;2022-10-26T00:26:43;101425.00;;;10.95;84.46
72285;BME280;60220;53.552;10.092;2022-10-26T00:29:10;101423.19;;;11.09;84.02
72285;BME280;60220;53.552;10.092;2022-10-26T00:31:38;101418.69;;;11.31;83.27
72285;BME280;60220;53.552;10.092;2022-10-26T00:34:06;101416.00;;;11.43;82.69
72285;BME280;60220;53.552;10.092;2022-10-26T00:36:35;101424.78;;;11.37;82.51
72285;BME280;60220;53.552;10.092;2022-10-26T00:39:02;101423.13;;;11.18;83.24
72285;BME280;60220;53.552;10.092;2022-10-26T00:41:31;101423.91;;;11.38;81.86
72285;BME280;60220;53.552;10.092;2022-10-26T00:44:44;101426.63;;;11.20;82.45
72285;BME280;60220;53.552;10.092;2022-10-26T00:47:25;101424.91;;;11.07;82.90
72285;BME280;60220;53.552;10.092;2022-10-26T00:50:00;101432.00;;;10.96;83.49
72285;BME280;60220;53.552;10.092;2022-10-26T00:52:28;101432.00;;;10.90;83.33
72285;BME280;60220;53.552;10.092;2022-10-26T00:54:57;101433.72;;;11.00;83.12
72285;BME280;60220;53.552;10.092;2022-10-26T00:57:26;101423.25;;;10.91;83.35
72285;BME280;60220;53.552;10.092;2022-10-26T00:59:56;101428.47;;;10.97;83.77
72285;BME280;60220;53.552;10.092;2022-10-26T01:02:24;101423.09;;;11.21;83.05
72285;BME280;60220;53.552;10.092;2022-10-26T01:04:53;101427.75;;;10.43;85.27
72285;BME280;60220;53.552;10.092;2022-10-26T01:07:20;101426.88;;;10.23;86.84
72285;BME280;60220;53.552;10.092;2022-10-26T01:09:47;101425.13;;;10.43;86.69
72285;BME280;60220;53.552;10.092;2022-10-26T01:12:14;101422.47;;;10.46;86.66
72285;BME280;60220;53.552;10.092;2022-10-26T01:14:41;101425.06;;;10.67;86.36
72285;BME280;60220;53.552;10.092;2022-10-26T01:17:18;101419.81;;;10.67;85.93
72285;BME280;60220;53.552;10.092;2022-10-26T01:20:25;101421.56;;;10.64;85.50
72285;BME280;60220;53.552;10.092;2022-10-26T01:22:56;101431.25;;;10.41;87.01
72285;BME280;60220;53.552;10.092;2022-10-26T01:25:53;101419.88;;;10.40;86.99
72285;BME280;60220;53.552;10.092;2022-10-26T01:28:32;101418.06;;;10.75;85.65
72285;BME280;60220;53.552;10.092;2022-10-26T01:31:09;101407.56;;;10.66;85.79
72285;BME280;60220;53.552;10.092;2022-10-26T01:33:38;101405.84;;;10.65;85.74
72285;BME280;60220;53.552;10.092;2022-10-26T01:36:10;101404.06;;;10.70;85.81
72285;BME280;60220;53.552;10.092;2022-10-26T01:38:49;101405.75;;;10.87;85.29
72285;BME280;60220;53.552;10.092;2022-10-26T01:41:23;101411.06;;;10.74;85.10
72285;BME280;60220;53.552;10.092;2022-10-26T01:43:54;101405.84;;;10.65;85.20
72285;BME280;60220;53.552;10.092;2022-10-26T01:46:25;101414.63;;;10.26;86.64
72285;BME280;60220;53.552;10.092;2022-10-26T01:48:56;101412.03;;;10.29;87.41
72285;BME280;60220;53.552;10.092;2022-10-26T01:51:24;101404.13;;;10.28;87.15
72285;BME280;60220;53.552;10.092;2022-10-26T01:53:51;101409.41;;;10.25;86.86
72285;BME280;60220;53.552;10.092;2022-10-26T01:56:20;101419.00;;;10.08;87.52
72285;BME280;60220;53.552;10.092;2022-10-26T01:59:00;101425.09;;;10.08;87.68
72285;BME280;60220;53.552;10.092;2022-10-26T02:04:19;101412.00;;;9.94;88.66
72285;BME280;60220;53.552;10.092;2022-10-26T02:06:57;101417.25;;;9.88;88.90
72285;BME280;60220;53.552;10.092;2022-10-26T02:09:31;101407.63;;;10.09;87.88
72285;BME280;60220;53.552;10.092;2022-10-26T02:12:04;101410.25;;;10.06;88.11
72285;BME280;60220;53.552;10.092;2022-10-26T02:14:40;101413.75;;;10.44;87.20
72285;BME280;60220;53.552;10.092;2022-10-26T02:17:13;101414.66;;;10.31;86.46
72285;BME280;60220;53.552;10.092;2022-10-26T02:19:46;101410.25;;;10.28;86.27
72285;BME280;60220;53.552;10.092;2022-10-26T02:22:18;101408.53;;;10.30;86.95
72285;BME280;60220;53.552;10.092;2022-10-26T02:24:48;101405.91;;;10.24;86.14
72285;BME280;60220;53.552;10.092;2022-10-26T02:27:19;101405.91;;;10.23;85.76
72285;BME280;60220;53.552;10.092;2022-10-26T02:29:48;101414.63;;;10.08;86.27
72285;BME280;60220;53.552;10.092;2022-10-26T02:32:17;101414.63;;;10.13;86.38
72285;BME280;60220;53.552;10.092;2022-10-26T02:34:47;101413.75;;;9.91;87.88
72285;BME280;60220;53.552;10.092;2022-10-26T02:37:19;101405.00;;;9.87;87.30
72285;BME280;60220;53.552;10.092;2022-10-26T02:39:49;101407.63;;;9.93;87.28
72285;BME280;60220;53.552;10.092;2022-10-26T02:42:17;101398.03;;;10.17;87.03
72285;BME280;60220;53.552;10.092;2022-10-26T02:44:47;101406.72;;;10.11;85.78
72285;BME280;60220;53.552;10.092;2022-10-26T02:47:15;101405.00;;;9.78;87.02
72285;BME280;60220;53.552;10.092;2022-10-26T02:49:43;101406.75;;;9.94;86.88
72285;BME280;60220;53.552;10.092;2022-10-26T02:52:16;101407.63;;;10.15;86.44
72285;BME280;60220;53.552;10.092;2022-10-26T02:54:51;101401.50;;;10.11;85.81
72285;BME280;60220;53.552;10.092;2022-10-26T02:57:23;101396.28;;;10.17;85.33
72285;BME280;60220;53.552;10.092;2022-10-26T02:59:51;101396.28;;;10.20;84.24
72285;BME280;60220;53.552;10.092;2022-10-26T03:02:19;101402.41;;;10.21;84.96
72285;BME280;60220;53.552;10.092;2022-10-26T03:04:48;101404.16;;;10.01;85.60
72285;BME280;60220;53.552;10.092;2022-10-26T03:07:21;101399.75;;;9.74;87.25
72285;BME280;60220;53.552;10.092;2022-10-26T03:09:48;101395.38;;;9.88;86.36
72285;BME280;60220;53.552;10.092;2022-10-26T03:12:15;101393.63;;;9.76;85.58
72285;BME280;60220;53.552;10.092;2022-10-26T03:14:41;101393.63;;;9.61;87.63
72285;BME280;60220;53.552;10.092;2022-10-26T03:17:08;101395.41;;;10.15;85.29
72285;BME280;60220;53.552;10.092;2022-10-26T03:19:36;101396.25;;;10.45;83.31
72285;BME280;60220;53.552;10.092;2022-10-26T03:22:03;101395.41;;;10.15;84.01
72285;BME280;60220;53.552;10.092;2022-10-26T03:24:33;101395.38;;;9.99;85.08
72285;BME280;60220;53.552;10.092;2022-10-26T03:27:02;101389.22;;;10.47;83.29
72285;BME280;60220;53.552;10.092;2022-10-26T03:29:29;101391.91;;;10.16;83.94
72285;BME280;60220;53.552;10.092;2022-10-26T03:31:55;101392.75;;;10.36;83.40
72285;BME280;60220;53.552;10.092;2022-10-26T03:34:24;101383.16;;;10.04;84.39
72285;BME280;60220;53.552;10.092;2022-10-26T03:36:50;101391.88;;;10.15;84.23
72285;BME280;60220;53.552;10.092;2022-10-26T03:39:17;101398.00;;;9.79;85.24
72285;BME280;60220;53.552;10.092;2022-10-26T03:41:45;101393.63;;;9.88;85.26
72285;BME280;60220;53.552;10.092;2022-10-26T03:44:12;101383.16;;;10.19;84.06
72285;BME280;60220;53.552;10.092;2022-10-26T03:46:38;101386.66;;;10.10;83.88
72285;BME280;60220;53.552;10.092;2022-10-26T03:49:07;101389.28;;;10.24;84.17
72285;BME280;60220;53.552;10.092;2022-10-26T03:51:34;101396.25;;;10.04;84.55
72285;BME280;60220;53.552;10.092;2022-10-26T03:54:03;101392.78;;;10.24;83.78
72285;BME280;60220;53.552;10.092;2022-10-26T03:56:32;101398.03;;;10.35;83.30
72285;BME280;60220;53.552;10.092;2022-10-26T03:59:02;101386.66;;;10.27;83.24
72285;BME280;60220;53.552;10.092;2022-10-26T04:01:29;101386.59;;;10.48;82.61
72285;BME280;60220;53.552;10.092;2022-10-26T04:03:56;101389.28;;;10.24;83.90
72285;BME280;60220;53.552;10.092;2022-10-26T04:06:25;101390.16;;;10.17;84.56
72285;BME280;60220;53.552;10.092;2022-10-26T04:08:51;101393.63;;;9.91;86.96
72285;BME280;60220;53.552;10.092;2022-10-26T04:11:22;101388.38;;;9.98;85.70
72285;BME280;60220;53.552;10.092;2022-10-26T04:13:51;101393.63;;;9.91;84.81
72285;BME280;60220;53.552;10.092;2022-10-26T04:16:19;101398.84;;;9.57;86.22
72285;BME280;60220;53.552;10.092;2022-10-26T04:18:46;101403.22;;;9.64;85.88
72285;BME280;60220;53.552;10.092;2022-10-26T04:21:13;101390.13;;;10.08;85.06
72285;BME280;60220;53.552;10.092;2022-10-26T04:23:39;101391.88;;;10.07;84.07
72285;BME280;60220;53.552;10.092;2022-10-26T04:26:08;101396.25;;;9.76;85.59
72285;BME280;60220;53.552;10.092;2022-10-26T04:28:35;101404.13;;;9.79;85.04
72285;BME280;60220;53.552;10.092;2022-10-26T04:31:01;101384.03;;;10.04;84.84
72285;BME280;60220;53.552;10.092;2022-10-26T04:33:31;101387.50;;;9.73;85.53
72285;BME280;60220;53.552;10.092;2022-10-26T04:35:58;101384.03;;;9.78;84.82
72285;BME280;60220;53.552;10.092;2022-10-26T04:38:25;101384.91;;;9.71;85.29
72285;BME280;60220;53.552;10.092;2022-10-26T04:40:54;101381.41;;;9.87;84.52
72285;BME280;60220;53.552;10.092;2022-10-26T04:43:21;101381.38;;;9.72;85.63
72285;BME280;60220;53.552;10.092;2022-10-26T04:45:48;101380.50;;;9.76;85.65
72285;BME280;60220;53.552;10.092;2022-10-26T04:48:16;101370.91;;;9.93;85.55
72285;BME280;60220;53.552;10.092;2022-10-26T04:50:44;101372.66;;;9.91;84.95
72285;BME280;60220;53.552;10.092;2022-10-26T04:53:11;101383.16;;;9.85;85.07
72285;BME280;60220;53.552;10.092;2022-10-26T04:55:38;101377.91;;;9.64;86.04
72285;BME280;60220;53.552;10.092;2022-10-26T04:58:05;101377.00;;;9.67;85.40
72285;BME280;60220;53.552;10.092;2022-10-26T05:00:33;101379.66;;;9.71;85.56
72285;BME280;60220;53.552;10.092;2022-10-26T05:03:00;101377.91;;;9.66;86.32
72285;BME280;60220;53.552;10.092;2022-10-26T05:05:27;101375.28;;;9.70;85.96
72285;BME280;60220;53.552;10.092;2022-10-26T05:07:55;101374.41;;;10.02;84.27
72285;BME280;60220;53.552;10.092;2022-10-26T05:10:25;101370.91;;;10.18;85.37
72285;BME280;60220;53.552;10.092;2022-10-26T05:12:52;101370.91;;;10.09;85.93
72285;BME280;60220;53.552;10.092;2022-10-26T05:15:20;101373.44;;;10.57;82.94
72285;BME280;60220;53.552;10.092;2022-10-26T05:17:53;101383.16;;;10.19;82.75
72285;BME280;60220;53.552;10.092;2022-10-26T05:20:20;101377.91;;;10.34;82.88
72285;BME280;60220;53.552;10.092;2022-10-26T05:22:54;101371.75;;;10.49;82.13
72285;BME280;60220;53.552;10.092;2022-10-26T05:25:21;101370.88;;;10.45;82.28
72285;BME280;60220;53.552;10.092;2022-10-26T05:27:47;101367.38;;;10.45;81.65
72285;BME280;60220;53.552;10.092;2022-10-26T05:30:16;101364.78;;;10.35;82.51
72285;BME280;60220;53.552;10.092;2022-10-26T05:32:43;101362.09;;;10.55;82.21
72285;BME280;60220;53.552;10.092;2022-10-26T05:35:09;101358.66;;;10.29;83.24
72285;BME280;60220;53.552;10.092;2022-10-26T05:37:36;101362.16;;;10.31;83.14
72285;BME280;60220;53.552;10.092;2022-10-26T05:40:05;101367.41;;;9.91;84.43
72285;BME280;60220;53.552;10.092;2022-10-26T05:42:32;101372.66;;;9.70;84.92
72285;BME280;60220;53.552;10.092;2022-10-26T05:44:58;101376.16;;;9.75;85.05
72285;BME280;60220;53.552;10.092;2022-10-26T05:47:25;101372.66;;;9.84;85.68
72285;BME280;60220;53.552;10.092;2022-10-26T05:49:51;101366.53;;;10.05;84.86
72285;BME280;60220;53.552;10.092;2022-10-26T05:52:20;101365.66;;;9.93;84.49
72285;BME280;60220;53.552;10.092;2022-10-26T05:54:49;101373.53;;;10.16;83.75
72285;BME280;60220;53.552;10.092;2022-10-26T05:57:17;101372.63;;;10.49;81.82
72285;BME280;60220;53.552;10.092;2022-10-26T05:59:45;101383.19;;;10.20;81.77
72285;BME280;60220;53.552;10.092;2022-10-26T06:02:17;101381.34;;;10.59;80.50
72285;BME280;60220;53.552;10.092;2022-10-26T06:04:50;101382.25;;;10.40;80.60
72285;BME280;60220;53.552;10.092;2022-10-26T06:07:21;101386.66;;;10.30;80.83
72285;BME280;60220;53.552;10.092;2022-10-26T06:09:48;101383.16;;;10.19;81.24
72285;BME280;60220;53.552;10.092;2022-10-26T06:12:16;101385.78;;;9.99;82.40
72285;BME280;60220;53.552;10.092;2022-10-26T06:14:43;101389.28;;;10.41;81.71
72285;BME280;60220;53.552;10.092;2022-10-26T06:17:32;101392.78;;;10.26;81.29
72285;BME280;60220;53.552;10.092;2022-10-26T06:20:17;101387.53;;;10.18;81.09
72285;BME280;60220;53.552;10.092;2022-10-26T06:22:58;101397.97;;;10.47;80.88
72285;BME280;60220;53.552;10.092;2022-10-26T06:25:35;101401.25;;;11.13;78.64
72285;BME280;60220;53.552;10.092;2022-10-26T06:28:13;101393.56;;;10.61;79.92
72285;BME280;60220;53.552;10.092;2022-10-26T06:30:42;101386.50;;;10.91;78.27
72285;BME280;60220;53.552;10.092;2022-10-26T06:33:10;101391.81;;;10.57;79.88
72285;BME280;60220;53.552;10.092;2022-10-26T06:35:45;101396.22;;;10.42;81.08
72285;BME280;60220;53.552;10.092;2022-10-26T06:38:17;101395.41;;;10.18;81.89
72285;BME280;60220;53.552;10.092;2022-10-26T06:40:45;101401.50;;;10.51;81.95
72285;BME280;60220;53.552;10.092;2022-10-26T06:43:21;101397.94;;;10.56;82.23
72285;BME280;60220;53.552;10.092;2022-10-26T06:45:53;101398.03;;;10.29;82.78
72285;BME280;60220;53.552;10.092;2022-10-26T06:48:24;101396.25;;;10.14;84.22
72285;BME280;60220;53.552;10.092;2022-10-26T06:50:54;101399.75;;;10.31;85.80
72285;BME280;60220;53.552;10.092;2022-10-26T06:53:23;101403.28;;;10.35;83.21
72285;BME280;60220;53.552;10.092;2022-10-26T06:55:54;101406.75;;;10.40;83.02
72285;BME280;60220;53.552;10.092;2022-10-26T06:58:27;101411.06;;;10.62;83.20
72285;BME280;60220;53.552;10.092;2022-10-26T07:00:56;101409.25;;;10.83;82.30
72285;BME280;60220;53.552;10.092;2022-10-26T07:03:22;101416.38;;;10.44;82.85
72285;BME280;60220;53.552;10.092;2022-10-26T07:05:49;101417.16;;;10.78;82.78
72285;BME280;60220;53.552;10.092;2022-10-26T07:08:16;101414.47;;;11.01;81.33
72285;BME280;60220;53.552;10.092;2022-10-26T07:10:45;101414.47;;;11.01;81.82
72285;BME280;60220;53.552;10.092;2022-10-26T07:13:12;101411.88;;;10.87;81.80
72285;BME280;60220;53.552;10.092;2022-10-26T07:15:40;101415.28;;;11.10;81.22
72285;BME280;60220;53.552;10.092;2022-10-26T07:18:07;101410.97;;;10.96;81.95
72285;BME280;60220;53.552;10.092;2022-10-26T07:20:36;101423.22;;;11.00;82.95
72285;BME280;60220;53.552;10.092;2022-10-26T07:23:03;101423.28;;;10.85;82.79
72285;BME280;60220;53.552;10.092;2022-10-26T07:25:33;101424.72;;;11.49;82.02
72285;BME280;60220;53.552;10.092;2022-10-26T07:28:00;101423.19;;;11.03;83.29
72285;BME280;60220;53.552;10.092;2022-10-26T07:30:27;101430.03;;;11.36;82.09
72285;BME280;60220;53.552;10.092;2022-10-26T07:32:59;101430.94;;;11.35;83.29
72285;BME280;60220;53.552;10.092;2022-10-26T07:35:26;101428.34;;;11.27;81.55
72285;BME280;60220;53.552;10.092;2022-10-26T07:37:55;101430.91;;;11.39;81.40
72285;BME280;60220;53.552;10.092;2022-10-26T07:40:25;101428.09;;;11.70;80.87
72285;BME280;60220;53.552;10.092;2022-10-26T07:42:55;101430.94;;;12.52;79.44
72285;BME280;60220;53.552;10.092;2022-10-26T07:45:23;101435.25;;;11.49;80.95
72285;BME280;60220;53.552;10.092;2022-10-26T07:47:51;101429.03;;;11.59;79.09
72285;BME280;60220;53.552;10.092;2022-10-26T07:50:21;101433.94;;;12.11;79.51
72285;BME280;60220;53.552;10.092;2022-10-26T07:52:48;101440.34;;;11.77;79.02
72285;BME280;60220;53.552;10.092;2022-10-26T07:55:15;101427.44;;;12.51;77.44
72285;BME280;60220;53.552;10.092;2022-10-26T07:57:42;101430.84;;;11.50;80.15
72285;BME280;60220;53.552;10.092;2022-10-26T08:00:09;101423.09;;;11.21;81.36
72285;BME280;60220;53.552;10.092;2022-10-26T08:02:37;101429.78;;;11.83;81.00
72285;BME280;60220;53.552;10.092;2022-10-26T08:05:04;101429.16;;;11.40;81.35
72285;BME280;60220;53.552;10.092;2022-10-26T08:07:32;101436.97;;;11.53;82.16
72285;BME280;60220;53.552;10.092;2022-10-26T08:09:59;101431.91;;;11.20;83.44
72285;BME280;60220;53.552;10.092;2022-10-26T08:12:28;101432.66;;;11.39;82.20
72285;BME280;60220;53.552;10.092;2022-10-26T08:14:54;101437.03;;;11.44;81.55
72285;BME280;60220;53.552;10.092;2022-10-26T08:17:21;101445.53;;;11.89;81.30
72285;BME280;60220;53.552;10.092;2022-10-26T08:19:48;101441.25;;;11.70;80.16
72285;BME280;60220;53.552;10.092;2022-10-26T08:22:14;101445.38;;;12.08;79.84
72285;BME280;60220;53.552;10.092;2022-10-26T08:24:42;101452.44;;;12.03;80.43
72285;BME280;60220;53.552;10.092;2022-10-26T08:27:13;101440.38;;;12.71;78.86
72285;BME280;60220;53.552;10.092;2022-10-26T08:29:42;101446.28;;;12.03;80.56
72285;BME280;60220;53.552;10.092;2022-10-26T08:32:09;101442.06;;;11.84;80.55
72285;BME280;60220;53.552;10.092;2022-10-26T08:34:35;101444.59;;;11.99;81.23
72285;BME280;60220;53.552;10.092;2022-10-26T08:37:04;101440.06;;;12.12;80.34
72285;BME280;60220;53.552;10.092;2022-10-26T08:39:30;101443.63;;;12.09;80.39
72285;BME280;60220;53.552;10.092;2022-10-26T08:42:02;101440.28;;;11.89;81.43
72285;BME280;60220;53.552;10.092;2022-10-26T08:44:35;101440.22;;;11.95;80.67
72285;BME280;60220;53.552;10.092;2022-10-26T08:47:06;101434.63;;;12.34;80.28
72285;BME280;60220;53.552;10.092;2022-10-26T08:49:42;101439.19;;;12.11;81.01
72285;BME280;60220;53.552;10.092;2022-10-26T08:52:14;101435.69;;;12.14;80.53
72285;BME280;60220;53.552;10.092;2022-10-26T08:54:46;101420.41;;;12.50;78.62
72285;BME280;60220;53.552;10.092;2022-10-26T08:57:21;101424.94;;;12.39;79.30
72285;BME280;60220;53.552;10.092;2022-10-26T08:59:57;101420.28;;;12.63;78.63
72285;BME280;60220;53.552;10.092;2022-10-26T09:02:25;101413.03;;;12.83;77.34
72285;BME280;60220;53.552;10.092;2022-10-26T09:04:56;101418.13;;;12.98;77.29
72285;BME280;60220;53.552;10.092;2022-10-26T09:07:36;101415.84;;;13.41;75.58
72285;BME280;60220;53.552;10.092;2022-10-26T09:10:19;101413.13;;;13.47;74.93
72285;BME280;60220;53.552;10.092;2022-10-26T09:12:56;101409.47;;;14.12;73.14
72285;BME280;60220;53.552;10.092;2022-10-26T09:15:32;101407.56;;;13.65;73.87
72285;BME280;60220;53.552;10.092;2022-10-26T09:18:12;101404.19;;;13.56;74.78
72285;BME280;60220;53.552;10.092;2022-10-26T09:20:48;101402.69;;;13.40;76.42
72285;BME280;60220;53.552;10.092;2022-10-26T09:23:35;101406.41;;;13.85;74.53
72285;BME280;60220;53.552;10.092;2022-10-26T09:26:11;101404.91;;;14.20;73.68
72285;BME280;60220;53.552;10.092;2022-10-26T09:28:40;101406.66;;;13.68;75.93
72285;BME280;60220;53.552;10.092;2022-10-26T09:31:14;101407.16;;;13.34;77.30
72285;BME280;60220;53.552;10.092;2022-10-26T09:33:42;101404.03;;;13.68;75.78
72285;BME280;60220;53.552;10.092;2022-10-26T09:36:11;101398.25;;;13.98;75.78
72285;BME280;60220;53.552;10.092;2022-10-26T09:38:42;101400.25;;;14.38;73.33
72285;BME280;60220;53.552;10.092;2022-10-26T09:41:16;101395.09;;;14.29;74.14
72285;BME280;60220;53.552;10.092;2022-10-26T09:43:51;101399.56;;;14.74;71.94
72285;BME280;60220;53.552;10.092;2022-10-26T09:46:25;101401.13;;;14.35;73.34
72285;BME280;60220;53.552;10.092;2022-10-26T09:48:58;101397.22;;;14.08;73.78
72285;BME280;60220;53.552;10.092;2022-10-26T09:51:26;101401.56;;;14.60;73.01
72285;BME280;60220;53.552;10.092;2022-10-26T09:53:55;101406.28;;;15.30;70.19
72285;BME280;60220;53.552;10.092;2022-10-26T09:56:23;101408.84;;;14.93;72.32
72285;BME280;60220;53.552;10.092;2022-10-26T09:58:54;101405.16;;;15.00;71.30
72285;BME280;60220;53.552;10.092;2022-10-26T10:01:30;101403.78;;;14.83;73.35
72285;BME280;60220;53.552;10.092;2022-10-26T10:04:09;101399.41;;;14.80;72.64
72285;BME280;60220;53.552;10.092;2022-10-26T10:06:36;101405.69;;;15.18;70.96
72285;BME280;60220;53.552;10.092;2022-10-26T10:09:06;101412.78;;;14.74;72.53
72285;BME280;60220;53.552;10.092;2022-10-26T10:11:37;101398.03;;;14.61;72.07
72285;BME280;60220;53.552;10.092;2022-10-26T10:14:08;101399.19;;;14.48;72.53
72285;BME280;60220;53.552;10.092;2022-10-26T10:16:35;101410.94;;;14.78;71.88
72285;BME280;60220;53.552;10.092;2022-10-26T10:19:01;101413.38;;;14.88;71.49
72285;BME280;60220;53.552;10.092;2022-10-26T10:21:33;101414.75;;;15.86;68.25
72285;BME280;60220;53.552;10.092;2022-10-26T10:24:01;101410.94;;;15.98;68.60
72285;BME280;60220;53.552;10.092;2022-10-26T10:26:27;101414.91;;;15.40;69.81
72285;BME280;60220;53.552;10.092;2022-10-26T10:28:58;101412.31;;;15.37;69.68
72285;BME280;60220;53.552;10.092;2022-10-26T10:31:30;101418.75;;;15.25;71.39
72285;BME280;60220;53.552;10.092;2022-10-26T10:33:58;101419.50;;;15.72;68.78
72285;BME280;60220;53.552;10.092;2022-10-26T10:36:26;101421.31;;;15.70;68.42
72285;BME280;60220;53.552;10.092;2022-10-26T10:38:54;101424.41;;;15.48;69.36
72285;BME280;60220;53.552;10.092;2022-10-26T10:41:24;101414.41;;;15.23;70.78
72285;BME280;60220;53.552;10.092;2022-10-26T10:43:54;101417.75;;;15.31;70.76
72285;BME280;60220;53.552;10.092;2022-10-26T10:46:24;101417.50;;;15.01;71.40
72285;BME280;60220;53.552;10.092;2022-10-26T10:49:01;101418.50;;;15.77;68.87
72285;BME280;60220;53.552;10.092;2022-10-26T10:51:37;101404.84;;;15.57;69.62
72285;BME280;60220;53.552;10.092;2022-10-26T10:54:05;101411.34;;;14.99;71.30
72285;BME280;60220;53.552;10.092;2022-10-26T10:56:46;101412.41;;;15.34;71.32
72285;BME280;60220;53.552;10.092;2022-10-26T10:59:44;101409.25;;;15.58;70.43
72285;BME280;60220;53.552;10.092;2022-10-26T11:02:39;101407.38;;;15.62;70.02
72285;BME280;60220;53.552;10.092;2022-10-26T11:05:20;101405.72;;;15.58;70.71
72285;BME280;60220;53.552;10.092;2022-10-26T11:07:52;101410.22;;;15.91;69.35
72285;BME280;60220;53.552;10.092;2022-10-26T11:10:22;101418.19;;;15.89;69.99
72285;BME280;60220;53.552;10.092;2022-10-26T11:12:55;101405.69;;;15.94;69.22
72285;BME280;60220;53.552;10.092;2022-10-26T11:15:25;101409.91;;;16.03;69.09
72285;BME280;60220;53.552;10.092;2022-10-26T11:18:00;101414.19;;;16.09;69.14
72285;BME280;60220;53.552;10.092;2022-10-26T11:20:36;101407.59;;;16.59;67.08
72285;BME280;60220;53.552;10.092;2022-10-26T11:23:09;101409.22;;;16.29;68.40
72285;BME280;60220;53.552;10.092;2022-10-26T11:25:44;101408.66;;;16.18;69.00
72285;BME280;60220;53.552;10.092;2022-10-26T11:28:16;101410.22;;;16.25;68.78
72285;BME280;60220;53.552;10.092;2022-10-26T11:30:51;101405.25;;;16.13;69.62
72285;BME280;60220;53.552;10.092;2022-10-26T11:33:21;101413.53;;;15.99;69.84
72285;BME280;60220;53.552;10.092;2022-10-26T11:35:57;101398.91;;;16.52;68.65
72285;BME280;60220;53.552;10.092;2022-10-26T11:38:27;101396.28;;;16.51;68.73
72285;BME280;60220;53.552;10.092;2022-10-26T11:41:01;101395.53;;;16.13;69.23
72285;BME280;60220;53.552;10.092;2022-10-26T11:43:34;101402.28;;;16.25;70.82
72285;BME280;60220;53.552;10.092;2022-10-26T11:46:08;101400.81;;;16.79;68.18
72285;BME280;60220;53.552;10.092;2022-10-26T11:48:41;101407.63;;;17.19;66.91
72285;BME280;60220;53.552;10.092;2022-10-26T11:51:16;101410.84;;;16.34;69.00
72285;BME280;60220;53.552;10.092;2022-10-26T11:53:47;101407.66;;;16.88;67.07
72285;BME280;60220;53.552;10.092;2022-10-26T11:56:22;101401.00;;;17.04;67.50
72285;BME280;60220;53.552;10.092;2022-10-26T11:58:50;101405.31;;;16.77;67.79
72285;BME280;60220;53.552;10.092;2022-10-26T12:01:17;101401.63;;;16.83;68.02
72285;BME280;60220;53.552;10.092;2022-10-26T12:03:47;101398.94;;;17.14;67.57
72285;BME280;60220;53.552;10.092;2022-10-26T12:06:18;101411.56;;;17.64;65.76
72285;BME280;60220;53.552;10.092;2022-10-26T12:08:49;101412.03;;;17.20;66.70
72285;BME280;60220;53.552;10.092;2022-10-26T12:11:27;101403.25;;;17.75;64.99
72285;BME280;60220;53.552;10.092;2022-10-26T12:14:00;101404.16;;;17.17;66.50
72285;BME280;60220;53.552;10.092;2022-10-26T12:16:39;101408.44;;;16.92;68.14
72285;BME280;60220;53.552;10.092;2022-10-26T12:19:13;101413.44;;;17.02;67.04
72285;BME280;60220;53.552;10.092;2022-10-26T12:21:42;101411.75;;;17.00;68.11
72285;BME280;60220;53.552;10.092;2022-10-26T12:24:32;101407.69;;;17.75;65.69
72285;BME280;60220;53.552;10.092;2022-10-26T12:27:01;101411.09;;;18.32;63.92
72285;BME280;60220;53.552;10.092;2022-10-26T12:29:37;101414.34;;;18.40;63.08
72285;BME280;60220;53.552;10.092;2022-10-26T12:35:39;101423.97;;;17.35;66.34
72285;BME280;60220;53.552;10.092;2022-10-26T12:38:26;101426.47;;;17.39;66.16
72285;BME280;60220;53.552;10.092;2022-10-26T12:41:07;101429.06;;;17.42;65.92
72285;BME280;60220;53.552;10.092;2022-10-26T12:43:37;101421.16;;;17.69;65.08
72285;BME280;60220;53.552;10.092;2022-10-26T12:46:37;101420.13;;;17.45;66.07
72285;BME280;60220;53.552;10.092;2022-10-26T12:52:19;101426.38;;;17.73;64.82
72285;BME280;60220;53.552;10.092;2022-10-26T12:55:06;101425.03;;;17.86;65.30
72285;BME280;60220;53.552;10.092;2022-10-26T12:57:40;101425.06;;;17.57;66.20
72285;BME280;60220;53.552;10.092;2022-10-26T13:00:13;101440.25;;;17.81;64.77
72285;BME280;60220;53.552;10.092;2022-10-26T13:02:51;101433.25;;;17.79;64.96
72285;BME280;60220;53.552;10.092;2022-10-26T13:05:44;101430.78;;;18.00;64.71
72285;BME280;60220;53.552;10.092;2022-10-26T13:08:23;101428.75;;;17.81;64.62
72285;BME280;60220;53.552;10.092;2022-10-26T13:11:01;101423.78;;;17.70;65.79